createdAt,value
2024-02-28T00:00:12.859Z,99935.16
2024-02-28T00:03:05.148Z,99939.04
2024-02-28T00:05:37.071Z,99941.03
2024-02-28T00:08:09.720Z,99944.60
2024-02-28T00:10:41.649Z,99945.09
2024-02-28T00:13:13.833Z,99949.42
2024-02-28T00:15:46.315Z,99947.73
2024-02-28T00:18:18.547Z,99947.94
2024-02-28T00:20:50.581Z,99947.88
2024-02-28T00:23:22.567Z,99948.36
2024-02-28T00:25:55.155Z,99948.59
2024-02-28T00:28:27.064Z,99951.36
2024-02-28T00:30:58.999Z,99953.27
2024-02-28T00:33:31.242Z,99953.17
2024-02-28T00:36:03.219Z,99953.33
2024-02-28T00:38:35.227Z,99952.08
2024-02-28T00:41:07.218Z,99953.39
2024-02-28T00:43:39.129Z,99950.17
2024-02-28T00:46:13.456Z,99948.70
2024-02-28T00:48:46.143Z,99945.73
2024-02-28T00:51:18.646Z,99943.40
2024-02-28T00:53:50.549Z,99943.60
2024-02-28T00:56:22.441Z,99949.06
2024-02-28T00:58:54.842Z,99957.33
2024-02-28T01:01:26.844Z,99955.90
2024-02-28T01:03:58.853Z,99955.97
2024-02-28T01:06:30.959Z,99955.48
2024-02-28T01:09:05.180Z,99958.83
2024-02-28T01:11:37.792Z,99962.81
2024-02-28T01:14:10.181Z,99965.06
2024-02-28T01:16:42.238Z,99965.94
2024-02-28T01:19:14.231Z,99965.17
2024-02-28T01:21:46.781Z,99970.46
2024-02-28T01:24:19.257Z,99975.80
2024-02-28T01:26:51.138Z,99975.98
2024-02-28T01:29:22.953Z,99974.81
2024-02-28T01:31:54.842Z,99987.14
2024-02-28T01:34:26.827Z,99989.64
2024-02-28T01:36:58.752Z,99983.82
2024-02-28T01:39:30.831Z,99989.52
2024-02-28T01:42:03.096Z,99984.61
2024-02-28T01:44:37.714Z,99982.72
2024-02-28T01:47:09.815Z,99974.19
2024-02-28T01:49:42.739Z,99978.90
2024-02-28T01:52:16.197Z,99988.52
2024-02-28T01:54:48.203Z,99990.17
2024-02-28T01:57:20.781Z,99983.78
2024-02-28T01:59:52.923Z,99984.14
2024-02-28T02:02:25.429Z,99981.56
2024-02-28T02:04:59.090Z,99983.02
2024-02-28T02:07:31.426Z,99982.48
2024-02-28T02:10:03.416Z,99979.03
2024-02-28T02:12:35.343Z,99984.45
2024-02-28T02:15:09.402Z,99982.42
2024-02-28T02:17:41.403Z,99982.27
2024-02-28T02:20:16.814Z,99981.45
2024-02-28T02:22:49.022Z,99985.89
2024-02-28T02:25:21.102Z,99997.18
2024-02-28T02:27:53.142Z,99997.41
2024-02-28T02:30:25.150Z,99995.42
2024-02-28T02:32:57.129Z,99995.52
2024-02-28T02:35:29.178Z,99993.84
2024-02-28T02:38:01.193Z,99992.63
2024-02-28T02:40:33.248Z,99981.77
2024-02-28T02:43:05.370Z,99974.50
2024-02-28T02:45:37.457Z,99971.27
2024-02-28T02:48:10.633Z,99967.55
2024-02-28T02:50:42.825Z,99968.59
2024-02-28T02:53:15.548Z,99974.48
2024-02-28T02:55:47.517Z,99973.90
2024-02-28T02:58:19.803Z,99971.38
2024-02-28T03:00:51.999Z,99968.11
2024-02-28T03:03:24.464Z,99972.23
2024-02-28T03:05:56.858Z,99975.20
2024-02-28T03:08:28.723Z,99978.80
2024-02-28T03:11:00.894Z,99977.85
2024-02-28T03:13:32.916Z,99968.39
2024-02-28T03:16:07.349Z,99965.55
2024-02-28T03:18:40.025Z,99969.96
2024-02-28T03:21:12.121Z,99974.73
2024-02-28T03:23:44.456Z,99975.75
2024-02-28T03:26:17.215Z,99978.38
2024-02-28T03:28:49.189Z,99982.58
2024-02-28T03:31:21.105Z,99983.55
2024-02-28T03:33:53.031Z,99983.77
2024-02-28T03:36:25.020Z,99983.17
2024-02-28T03:38:56.950Z,99986.23
2024-02-28T03:41:29.212Z,99982.08
2024-02-28T03:44:01.088Z,99980.92
2024-02-28T03:46:33.009Z,99977.15
2024-02-28T03:49:05.082Z,99972.89
2024-02-28T03:51:43.071Z,99971.68
2024-02-28T03:54:15.144Z,99971.70
2024-02-28T03:56:47.040Z,99968.87
2024-02-28T03:59:19.059Z,99969.10
2024-02-28T04:01:51.322Z,99967.52
2024-02-28T04:04:23.178Z,99966.35
2024-02-28T04:06:55.982Z,99961.29
2024-02-28T04:09:28.054Z,99961.73
2024-02-28T04:12:00.103Z,99961.07
2024-02-28T04:14:32.101Z,99957.86
2024-02-28T04:17:04.064Z,99954.42
2024-02-28T04:19:38.724Z,99957.48
2024-02-28T04:22:10.771Z,99955.11
2024-02-28T04:24:42.750Z,99957.26
2024-02-28T04:27:14.738Z,99948.14
2024-02-28T04:29:46.747Z,99946.13
2024-02-28T04:32:18.783Z,99955.41
2024-02-28T04:34:50.766Z,99960.05
2024-02-28T04:37:23.184Z,99964.64
2024-02-28T04:39:55.196Z,99969.27
2024-02-28T04:42:27.412Z,99978.38
2024-02-28T04:44:59.361Z,99986.63
2024-02-28T04:47:36.716Z,99988.04
2024-02-28T04:50:16.131Z,99989.13
2024-02-28T04:52:48.237Z,99991.44
2024-02-28T04:55:20.502Z,99994.00
2024-02-28T04:57:52.658Z,99994.86
2024-02-28T05:00:24.790Z,99994.14
2024-02-28T05:02:57.005Z,99995.05
2024-02-28T05:05:29.019Z,99995.48
2024-02-28T05:08:00.953Z,99996.98
2024-02-28T05:10:35.503Z,99999.22
2024-02-28T05:13:07.958Z,99999.80
2024-02-28T05:15:39.980Z,100000.66
2024-02-28T05:18:12.099Z,100003.98
2024-02-28T05:20:44.365Z,100008.06
2024-02-28T05:23:16.363Z,100011.60
2024-02-28T05:25:48.758Z,100016.55
2024-02-28T05:28:20.741Z,100016.45
2024-02-28T05:30:52.975Z,100019.23
2024-02-28T05:33:25.101Z,100022.55
2024-02-28T05:35:57.087Z,100024.05
2024-02-28T05:38:29.023Z,100024.00
2024-02-28T05:41:00.915Z,100028.64
2024-02-28T05:43:34.493Z,100030.30
2024-02-28T05:46:06.651Z,100027.27
2024-02-28T05:48:38.627Z,100026.48
2024-02-28T05:51:10.667Z,100029.99
2024-02-28T05:53:43.809Z,100034.54
2024-02-28T05:56:16.342Z,100042.61
2024-02-28T05:58:49.249Z,100040.90
2024-02-28T06:01:21.648Z,100042.12
2024-02-28T06:03:54.201Z,100043.25
2024-02-28T06:06:27.062Z,100041.81
2024-02-28T06:08:59.101Z,100044.84
2024-02-28T06:11:31.503Z,100047.88
2024-02-28T06:14:05.221Z,100053.13
2024-02-28T06:16:37.220Z,100056.54
2024-02-28T06:19:09.186Z,100058.09
2024-02-28T06:21:41.161Z,100060.55
2024-02-28T06:24:13.311Z,100063.02
2024-02-28T06:26:48.365Z,100066.90
2024-02-28T06:29:23.405Z,100069.33
2024-02-28T06:31:56.682Z,100068.66
2024-02-28T06:34:28.719Z,100069.38
2024-02-28T06:37:00.738Z,100069.83
2024-02-28T06:39:33.001Z,100073.21
2024-02-28T06:42:05.362Z,100074.34
2024-02-28T06:44:37.381Z,100080.23
2024-02-28T06:47:10.316Z,100083.67
2024-02-28T06:49:42.322Z,100082.66
2024-02-28T06:52:14.352Z,100086.81
2024-02-28T06:54:46.446Z,100094.75
2024-02-28T06:57:18.639Z,100095.27
2024-02-28T06:59:50.621Z,100091.87
2024-02-28T07:02:22.735Z,100093.84
2024-02-28T07:04:54.692Z,100091.70
2024-02-28T07:07:26.557Z,100092.21
2024-02-28T07:09:58.650Z,100093.98
2024-02-28T07:12:30.742Z,100096.92
2024-02-28T07:15:02.778Z,100096.05
2024-02-28T07:17:35.337Z,100098.15
2024-02-28T07:20:09.769Z,100102.30
2024-02-28T07:22:43.885Z,100103.58
2024-02-28T07:25:16.067Z,100106.98
2024-02-28T07:27:48.096Z,100105.44
2024-02-28T07:30:21.053Z,100106.27
2024-02-28T07:32:54.162Z,100107.04
2024-02-28T07:35:26.398Z,100104.49
2024-02-28T07:37:59.025Z,100104.14
2024-02-28T07:40:31.335Z,100105.54
2024-02-28T07:43:03.575Z,100109.25
2024-02-28T07:45:35.650Z,100105.95
2024-02-28T07:48:09.066Z,100106.28
2024-02-28T07:50:43.286Z,100107.29
2024-02-28T07:53:17.024Z,100110.95
2024-02-28T07:55:49.013Z,100107.73
2024-02-28T07:58:21.881Z,100106.83
2024-02-28T08:00:54.705Z,100105.62
2024-02-28T08:03:26.800Z,100108.11
2024-02-28T08:05:59.427Z,100116.79
2024-02-28T08:08:31.605Z,100122.14
2024-02-28T08:11:04.659Z,100124.66
2024-02-28T08:13:36.727Z,100124.84
2024-02-28T08:16:10.409Z,100127.17
2024-02-28T08:18:42.469Z,100132.30
2024-02-28T08:21:14.480Z,100131.48
2024-02-28T08:23:46.492Z,100129.02
2024-02-28T08:26:18.766Z,100132.90
2024-02-28T08:28:50.784Z,100137.34
2024-02-28T08:31:23.156Z,100135.75
2024-02-28T08:33:56.860Z,100132.61
2024-02-28T08:36:29.371Z,100131.83
2024-02-28T08:39:01.321Z,100133.91
2024-02-28T08:41:33.332Z,100132.64
2024-02-28T08:44:05.524Z,100130.83
2024-02-28T08:46:37.612Z,100129.31
2024-02-28T08:49:10.056Z,100129.55
2024-02-28T08:51:42.779Z,100128.14
2024-02-28T08:54:14.858Z,100130.08
2024-02-28T08:56:53.583Z,100129.26
2024-02-28T08:59:29.399Z,100126.92
2024-02-28T09:02:01.379Z,100126.27
2024-02-28T09:04:33.470Z,100125.60
2024-02-28T09:07:05.858Z,100125.55
2024-02-28T09:09:39.413Z,100129.42
2024-02-28T09:12:12.007Z,100132.43
2024-02-28T09:14:45.597Z,100131.18
2024-02-28T09:17:17.651Z,100134.73
2024-02-28T09:19:49.651Z,100136.04
2024-02-28T09:22:22.788Z,100135.33
2024-02-28T09:24:54.927Z,100134.82
2024-02-28T09:27:27.386Z,100132.77
2024-02-28T09:29:59.425Z,100130.70
2024-02-28T09:32:31.476Z,100136.80
2024-02-28T09:35:04.610Z,100134.52
2024-02-28T09:37:36.839Z,100137.48
2024-02-28T09:40:13.710Z,100141.08
2024-02-28T09:42:48.715Z,100140.75
2024-02-28T09:45:22.544Z,100143.54
2024-02-28T09:47:54.767Z,100147.45
2024-02-28T09:50:27.927Z,100150.51
2024-02-28T09:53:09.469Z,100153.22
2024-02-28T09:55:43.111Z,100154.52
2024-02-28T09:58:15.170Z,100156.61
2024-02-28T10:00:49.080Z,100153.38
2024-02-28T10:03:24.499Z,100153.92
2024-02-28T10:05:56.749Z,100155.66
2024-02-28T10:08:30.396Z,100155.67
2024-02-28T10:11:02.309Z,100159.84
2024-02-28T10:13:34.332Z,100156.23
2024-02-28T10:16:08.891Z,100159.02
2024-02-28T10:18:40.988Z,100162.56
2024-02-28T10:21:13.775Z,100165.45
2024-02-28T10:23:47.265Z,100169.79
2024-02-28T10:26:19.861Z,100170.14
2024-02-28T10:28:53.444Z,100173.08
2024-02-28T10:31:26.253Z,100174.63
2024-02-28T10:33:58.840Z,100181.33
2024-02-28T10:36:34.799Z,100179.83
2024-02-28T10:39:08.180Z,100176.73
2024-02-28T10:41:41.847Z,100172.98
2024-02-28T10:44:14.856Z,100172.24
2024-02-28T10:46:51.471Z,100174.67
2024-02-28T10:49:23.477Z,100180.80
2024-02-28T10:51:58.899Z,100175.11
2024-02-28T10:54:33.737Z,100180.67
2024-02-28T10:57:07.763Z,100179.60
2024-02-28T10:59:42.671Z,100180.02
2024-02-28T11:02:15.200Z,100183.27
2024-02-28T11:04:47.595Z,100187.34
2024-02-28T11:07:24.688Z,100185.70
2024-02-28T11:09:59.024Z,100187.39
2024-02-28T11:12:32.060Z,100186.54
2024-02-28T11:15:07.584Z,100185.34
2024-02-28T11:17:39.654Z,100185.56
2024-02-28T11:20:19.101Z,100184.60
2024-02-28T11:22:59.002Z,100181.23
2024-02-28T11:25:31.015Z,100184.71
2024-02-28T11:28:03.414Z,100181.00
2024-02-28T11:30:35.482Z,100185.65
2024-02-28T11:33:09.919Z,100188.96
2024-02-28T11:35:42.686Z,100191.75
2024-02-28T11:38:16.202Z,100195.63
2024-02-28T11:40:53.470Z,100196.46
2024-02-28T11:43:27.012Z,100197.92
2024-02-28T11:45:59.238Z,100202.50
2024-02-28T11:48:32.322Z,100201.49
2024-02-28T11:51:04.738Z,100205.36
2024-02-28T11:53:36.856Z,100207.95
2024-02-28T11:56:10.311Z,100206.40
2024-02-28T11:58:53.423Z,100207.73
2024-02-28T12:01:39.801Z,100205.73
2024-02-28T12:04:12.427Z,100201.83
2024-02-28T12:06:45.092Z,100205.04
2024-02-28T12:09:21.868Z,100205.20
2024-02-28T12:12:05.101Z,100202.64
2024-02-28T12:14:40.658Z,100205.39
2024-02-28T12:17:13.269Z,100210.61
2024-02-28T12:19:45.609Z,100207.02
2024-02-28T12:22:18.043Z,100209.60
2024-02-28T12:24:49.985Z,100210.42
2024-02-28T12:27:22.112Z,100212.16
2024-02-28T12:29:54.161Z,100215.08
2024-02-28T12:32:26.195Z,100213.59
2024-02-28T12:34:58.236Z,100213.84
2024-02-28T12:37:30.726Z,100214.02
2024-02-28T12:40:05.987Z,100215.62
2024-02-28T12:42:41.110Z,100213.67
2024-02-28T12:45:13.672Z,100211.85
2024-02-28T12:47:47.645Z,100219.04
2024-02-28T12:50:22.936Z,100218.40
2024-02-28T12:52:55.397Z,100220.64
2024-02-28T12:55:27.403Z,100220.98
2024-02-28T12:58:01.038Z,100223.48
2024-02-28T13:00:33.267Z,100220.87
2024-02-28T13:03:06.195Z,100225.25
2024-02-28T13:05:38.527Z,100223.11
2024-02-28T13:08:10.826Z,100226.69
2024-02-28T13:10:43.245Z,100233.52
2024-02-28T13:13:15.449Z,100231.69
2024-02-28T13:15:47.520Z,100234.36
2024-02-28T13:18:20.382Z,100234.02
2024-02-28T13:20:52.671Z,100232.67
2024-02-28T13:23:24.667Z,100234.23
2024-02-28T13:25:56.861Z,100236.34
2024-02-28T13:28:30.859Z,100237.77
2024-02-28T13:31:05.342Z,100238.94
2024-02-28T13:33:38.262Z,100234.16
2024-02-28T13:36:11.043Z,100239.16
2024-02-28T13:38:43.069Z,100245.30
2024-02-28T13:41:15.591Z,100244.34
2024-02-28T13:43:47.453Z,100245.07
2024-02-28T13:46:20.611Z,100244.77
2024-02-28T13:48:52.737Z,100245.98
2024-02-28T13:51:25.555Z,100244.88
2024-02-28T13:53:57.732Z,100244.50
2024-02-28T13:56:31.924Z,100245.52
2024-02-28T13:59:03.835Z,100246.41
2024-02-28T14:01:36.124Z,100250.59
2024-02-28T14:04:08.684Z,100249.85
2024-02-28T14:06:40.917Z,100249.60
2024-02-28T14:09:13.314Z,100240.11
2024-02-28T14:11:46.318Z,100243.30
2024-02-28T14:14:18.804Z,100244.85
2024-02-28T14:16:50.988Z,100248.17
2024-02-28T14:19:23.287Z,100252.52
2024-02-28T14:21:55.640Z,100252.77
2024-02-28T14:24:28.047Z,100257.95
2024-02-28T14:27:00.095Z,100258.49
2024-02-28T14:29:32.030Z,100267.29
2024-02-28T14:32:04.427Z,100270.05
2024-02-28T14:34:36.944Z,100267.68
2024-02-28T14:37:09.138Z,100270.73
2024-02-28T14:39:41.128Z,100270.30
2024-02-28T14:42:13.558Z,100273.23
2024-02-28T14:44:45.947Z,100272.75
2024-02-28T14:47:18.073Z,100278.20
2024-02-28T14:49:50.904Z,100282.17
2024-02-28T14:52:23.452Z,100280.89
2024-02-28T14:54:56.082Z,100283.42
2024-02-28T14:57:28.154Z,100288.02
2024-02-28T15:00:00.289Z,100294.98
2024-02-28T15:02:32.869Z,100299.85
2024-02-28T15:05:06.733Z,100300.38
2024-02-28T15:07:40.115Z,100301.43
2024-02-28T15:10:15.187Z,100304.06
2024-02-28T15:12:47.314Z,100306.89
2024-02-28T15:15:19.869Z,100310.17
2024-02-28T15:17:52.342Z,100309.14
2024-02-28T15:20:24.832Z,100310.48
2024-02-28T15:22:57.389Z,100305.27
2024-02-28T15:25:29.305Z,100308.39
2024-02-28T15:28:01.376Z,100310.75
2024-02-28T15:30:33.609Z,100312.47
2024-02-28T15:33:06.914Z,100316.23
2024-02-28T15:35:41.270Z,100315.77
2024-02-28T15:38:14.368Z,100323.81
2024-02-28T15:40:46.543Z,100327.48
2024-02-28T15:43:18.512Z,100327.42
2024-02-28T15:45:50.971Z,100328.06
2024-02-28T15:48:23.102Z,100324.79
2024-02-28T15:50:56.379Z,100328.11
2024-02-28T15:53:28.340Z,100324.56
2024-02-28T15:56:00.480Z,100319.84
2024-02-28T15:58:32.432Z,100327.38
2024-02-28T16:01:04.700Z,100331.69
2024-02-28T16:03:38.341Z,100333.19
2024-02-28T16:06:11.408Z,100335.09
2024-02-28T16:08:45.087Z,100339.71
2024-02-28T16:11:17.309Z,100341.87
2024-02-28T16:13:49.727Z,100344.43
2024-02-28T16:16:21.646Z,100344.00
2024-02-28T16:18:53.865Z,100350.89
2024-02-28T16:21:26.323Z,100351.81
2024-02-28T16:23:58.281Z,100356.33
2024-02-28T16:26:30.301Z,100359.20
2024-02-28T16:29:02.314Z,100362.92
2024-02-28T16:31:34.462Z,100365.91
2024-02-28T16:34:06.581Z,100363.23
2024-02-28T16:36:38.744Z,100363.81
2024-02-28T16:39:10.647Z,100365.23
2024-02-28T16:41:42.754Z,100362.76
2024-02-28T16:44:14.789Z,100370.53
2024-02-28T16:46:46.719Z,100372.77
2024-02-28T16:49:19.035Z,100370.19
2024-02-28T16:51:51.039Z,100373.00
2024-02-28T16:54:23.465Z,100373.16
2024-02-28T16:56:55.695Z,100379.15
2024-02-28T16:59:27.858Z,100378.64
2024-02-28T17:02:00.156Z,100377.57
2024-02-28T17:04:34.061Z,100379.95
2024-02-28T17:07:06.361Z,100379.95
2024-02-28T17:09:38.356Z,100379.20
2024-02-28T17:12:10.827Z,100381.30
2024-02-28T17:14:43.704Z,100378.27
2024-02-28T17:17:16.135Z,100378.19
2024-02-28T17:19:49.479Z,100379.59
2024-02-28T17:22:21.578Z,100383.20
2024-02-28T17:24:53.725Z,100382.64
2024-02-28T17:27:26.175Z,100383.02
2024-02-28T17:29:58.458Z,100382.12
2024-02-28T17:32:30.771Z,100386.67
2024-02-28T17:35:05.120Z,100385.48
2024-02-28T17:37:37.741Z,100386.86
2024-02-28T17:40:12.896Z,100390.05
2024-02-28T17:42:45.080Z,100396.71
2024-02-28T17:45:18.278Z,100397.85
2024-02-28T17:47:50.195Z,100397.98
2024-02-28T17:50:25.674Z,100399.19
2024-02-28T17:52:57.774Z,100399.91
2024-02-28T17:55:30.650Z,100403.61
2024-02-28T17:58:02.869Z,100401.42
2024-02-28T18:00:35.464Z,100401.05
2024-02-28T18:03:08.519Z,100405.29
2024-02-28T18:05:40.917Z,100407.49
2024-02-28T18:08:13.451Z,100408.35
2024-02-28T18:10:45.474Z,100412.70
2024-02-28T18:13:19.385Z,100414.23
2024-02-28T18:15:51.909Z,100411.30
2024-02-28T18:18:24.007Z,100407.36
2024-02-28T18:20:56.372Z,100406.66
2024-02-28T18:23:34.200Z,100410.56
2024-02-28T18:26:09.490Z,100415.54
2024-02-28T18:28:42.129Z,100421.73
2024-02-28T18:31:17.355Z,100424.28
2024-02-28T18:33:49.443Z,100422.79
2024-02-28T18:36:23.931Z,100420.70
2024-02-28T18:38:56.307Z,100423.23
2024-02-28T18:41:28.321Z,100428.61
2024-02-28T18:44:00.337Z,100436.31
2024-02-28T18:46:32.369Z,100436.96
2024-02-28T18:49:04.373Z,100441.45
2024-02-28T18:51:36.436Z,100447.84
2024-02-28T18:54:08.723Z,100451.83
2024-02-28T18:56:40.897Z,100454.95
2024-02-28T18:59:12.797Z,100457.71
2024-02-28T19:01:47.354Z,100464.39
2024-02-28T19:04:20.387Z,100465.09
2024-02-28T19:06:52.703Z,100465.20
2024-02-28T19:09:25.324Z,100472.02
2024-02-28T19:11:57.511Z,100466.71
2024-02-28T19:14:29.623Z,100466.08
2024-02-28T19:17:02.723Z,100469.84
2024-02-28T19:19:34.910Z,100469.71
2024-02-28T19:22:07.572Z,100471.19
2024-02-28T19:24:39.591Z,100471.80
2024-02-28T19:27:11.570Z,100470.61
2024-02-28T19:29:43.781Z,100469.10
2024-02-28T19:32:16.634Z,100469.76
2024-02-28T19:34:48.744Z,100470.89
2024-02-28T19:37:21.482Z,100474.48
2024-02-28T19:39:57.876Z,100475.30
2024-02-28T19:42:29.874Z,100474.60
2024-02-28T19:45:01.870Z,100476.77
2024-02-28T19:47:34.713Z,100484.21
2024-02-28T19:50:08.286Z,100485.81
2024-02-28T19:52:41.257Z,100483.28
2024-02-28T19:55:13.506Z,100481.59
2024-02-28T19:57:46.100Z,100486.80
2024-02-28T20:00:19.919Z,100486.58
2024-02-28T20:02:52.378Z,100485.98
2024-02-28T20:05:24.441Z,100493.55
2024-02-28T20:07:56.514Z,100490.95
2024-02-28T20:10:28.546Z,100492.27
2024-02-28T20:13:02.077Z,100493.48
2024-02-28T20:15:34.216Z,100493.83
2024-02-28T20:18:07.058Z,100493.62
2024-02-28T20:20:39.092Z,100499.30
2024-02-28T20:23:11.483Z,100500.23
2024-02-28T20:25:43.999Z,100502.23
2024-02-28T20:28:18.251Z,100500.05
2024-02-28T20:30:52.256Z,100499.04
2024-02-28T20:33:26.515Z,100500.91
2024-02-28T20:35:58.774Z,100505.60
2024-02-28T20:38:31.185Z,100507.66
2024-02-28T20:41:03.257Z,100512.17
2024-02-28T20:43:35.667Z,100520.35
2024-02-28T20:46:08.139Z,100521.25
2024-02-28T20:48:42.452Z,100525.98
2024-02-28T20:51:14.811Z,100534.90
2024-02-28T20:53:54.529Z,100535.69
2024-02-28T20:56:27.759Z,100535.38
2024-02-28T20:59:02.016Z,100536.55
2024-02-28T21:01:34.252Z,100539.89
2024-02-28T21:04:08.078Z,100539.99
2024-02-28T21:06:40.373Z,100542.81
2024-02-28T21:09:12.617Z,100546.80
2024-02-28T21:11:44.571Z,100545.56
2024-02-28T21:14:17.061Z,100551.17
2024-02-28T21:16:49.133Z,100550.84
2024-02-28T21:19:21.627Z,100557.36
2024-02-28T21:21:53.699Z,100568.45
2024-02-28T21:24:25.796Z,100568.23
2024-02-28T21:26:57.793Z,100570.58
2024-02-28T21:29:29.719Z,100574.83
2024-02-28T21:32:01.857Z,100574.95
2024-02-28T21:34:33.797Z,100574.48
2024-02-28T21:37:06.380Z,100568.27
2024-02-28T21:39:38.390Z,100569.63
2024-02-28T21:42:10.791Z,100571.41
2024-02-28T21:44:42.959Z,100568.42
2024-02-28T21:47:15.648Z,100574.67
2024-02-28T21:49:47.738Z,100577.06
2024-02-28T21:52:19.951Z,100577.43
2024-02-28T21:54:52.762Z,100570.08
2024-02-28T21:57:24.920Z,100568.00
2024-02-28T21:59:56.967Z,100569.16
2024-02-28T22:02:29.319Z,100575.27
2024-02-28T22:05:01.630Z,100581.64
2024-02-28T22:07:34.300Z,100584.56
2024-02-28T22:10:08.361Z,100589.28
2024-02-28T22:12:40.686Z,100589.05
2024-02-28T22:15:14.374Z,100590.15
2024-02-28T22:17:46.636Z,100589.69
2024-02-28T22:20:19.099Z,100586.66
2024-02-28T22:22:51.006Z,100584.45
2024-02-28T22:25:23.026Z,100586.11
2024-02-28T22:27:55.093Z,100589.46
2024-02-28T22:30:27.125Z,100589.63
2024-02-28T22:32:59.147Z,100588.50
2024-02-28T22:35:31.185Z,100589.82
2024-02-28T22:38:03.094Z,100595.58
2024-02-28T22:40:35.477Z,100595.92
2024-02-28T22:43:07.965Z,100604.23
2024-02-28T22:45:41.601Z,100606.54
2024-02-28T22:48:14.173Z,100603.55
2024-02-28T22:50:46.229Z,100601.69
2024-02-28T22:53:18.769Z,100600.88
2024-02-28T22:55:50.905Z,100600.98
2024-02-28T22:58:22.982Z,100600.52
2024-02-28T23:00:55.012Z,100604.63
2024-02-28T23:03:27.833Z,100608.18
2024-02-28T23:06:01.540Z,100611.04
2024-02-28T23:08:34.098Z,100612.33
2024-02-28T23:11:06.261Z,100614.91
2024-02-28T23:13:40.065Z,100615.95
2024-02-28T23:16:12.329Z,100608.89
2024-02-28T23:18:44.377Z,100610.79
2024-02-28T23:21:16.862Z,100614.71
2024-02-28T23:23:48.741Z,100617.30
2024-02-28T23:26:20.761Z,100619.30
2024-02-28T23:28:52.769Z,100619.74
2024-02-28T23:31:24.745Z,100626.17
2024-02-28T23:33:56.894Z,100626.89
2024-02-28T23:36:29.074Z,100626.27
2024-02-28T23:39:01.187Z,100627.03
2024-02-28T23:41:34.493Z,100622.99
2024-02-28T23:44:06.409Z,100624.55
2024-02-28T23:46:38.507Z,100625.48
2024-02-28T23:49:10.656Z,100624.99
2024-02-28T23:51:45.694Z,100618.27
2024-02-28T23:54:18.075Z,100620.45
2024-02-28T23:56:50.070Z,100620.50
2024-02-28T23:59:22.121Z,100621.30
